createdAt,value
2023-03-08T00:02:07.870Z,99411.78
2023-03-08T00:04:35.983Z,99415.06
2023-03-08T00:07:04.127Z,99419.53
2023-03-08T00:09:32.071Z,99400.19
2023-03-08T00:12:00.066Z,99429.78
2023-03-08T00:14:29.452Z,99426.16
2023-03-08T00:16:57.474Z,99426.97
2023-03-08T00:19:25.386Z,99404.47
2023-03-08T00:21:53.467Z,99427.94
2023-03-08T00:24:21.518Z,99412.41
2023-03-08T00:26:49.590Z,99398.56
2023-03-08T00:29:17.519Z,99394.28
2023-03-08T00:31:47.204Z,99399.72
2023-03-08T00:34:15.146Z,99398.88
2023-03-08T00:36:43.178Z,99379.88
2023-03-08T00:39:12.220Z,99393.91
2023-03-08T00:41:40.211Z,99383.69
2023-03-08T00:44:08.159Z,99393.91
2023-03-08T00:46:36.213Z,99381.72
2023-03-08T00:49:05.561Z,99382.31
2023-03-08T00:51:33.907Z,99381.00
2023-03-08T00:54:01.952Z,99376.38
2023-03-08T00:56:29.893Z,99356.53
2023-03-08T00:58:58.202Z,99319.41
2023-03-08T01:01:26.294Z,99276.66
2023-03-08T01:03:54.288Z,99280.94
2023-03-08T01:06:25.824Z,99264.72
2023-03-08T01:08:53.801Z,99279.25
2023-03-08T01:11:22.648Z,99281.88
2023-03-08T01:13:51.227Z,99262.78
2023-03-08T01:16:20.059Z,99250.22
2023-03-08T01:18:48.011Z,99226.94
2023-03-08T01:21:15.919Z,99234.88
2023-03-08T01:23:45.536Z,99195.78
2023-03-08T01:26:14.298Z,99211.31
2023-03-08T01:28:42.365Z,99198.31
2023-03-08T01:31:12.267Z,99212.78
2023-03-08T01:33:41.792Z,99198.44
2023-03-08T01:36:11.446Z,99201.91
2023-03-08T01:38:39.504Z,99201.03
2023-03-08T01:41:09.329Z,99192.47
2023-03-08T01:43:41.041Z,99181.44
2023-03-08T01:46:17.682Z,99175.34
2023-03-08T01:48:54.006Z,99178.94
2023-03-08T01:51:25.866Z,99159.53
2023-03-08T01:53:53.827Z,99156.91
2023-03-08T01:56:23.107Z,99140.41
2023-03-08T01:58:51.273Z,99138.75
2023-03-08T02:01:19.769Z,99147.34
2023-03-08T02:03:49.043Z,99138.75
2023-03-08T02:06:19.475Z,99136.09
2023-03-08T02:08:47.467Z,99149.31
2023-03-08T02:11:15.409Z,99132.53
2023-03-08T02:13:44.787Z,99129.06
2023-03-08T02:16:14.465Z,99118.38
2023-03-08T02:19:05.025Z,99111.47
2023-03-08T02:21:35.833Z,99114.44
2023-03-08T02:24:06.892Z,99127.09
2023-03-08T02:26:34.956Z,99125.97
2023-03-08T02:29:02.918Z,99121.31
2023-03-08T02:31:31.065Z,99082.44
2023-03-08T02:33:59.509Z,99098.94
2023-03-08T02:36:28.431Z,99090.19
2023-03-08T02:38:56.454Z,99074.09
2023-03-08T02:41:25.814Z,99060.56
2023-03-08T02:44:32.994Z,99077.19
2023-03-08T02:47:01.175Z,99067.94
2023-03-08T02:49:29.115Z,99068.78
2023-03-08T02:52:03.506Z,99048.00
2023-03-08T02:54:31.685Z,99045.06
2023-03-08T02:57:01.066Z,99033.34
2023-03-08T02:59:30.918Z,99044.22
2023-03-08T03:01:59.850Z,99038.13
2023-03-08T03:04:30.636Z,99032.53
2023-03-08T03:06:58.702Z,99019.84
2023-03-08T03:09:26.783Z,99019.84
2023-03-08T03:11:55.267Z,98990.53
2023-03-08T03:14:24.899Z,99008.31
2023-03-08T03:16:53.086Z,99006.03
2023-03-08T03:19:21.388Z,98986.25
2023-03-08T03:21:50.463Z,98980.34
2023-03-08T03:24:18.589Z,98964.22
2023-03-08T03:26:52.278Z,98956.31
2023-03-08T03:29:21.659Z,98949.72
2023-03-08T03:31:56.036Z,98954.19
2023-03-08T03:34:24.804Z,98955.00
2023-03-08T03:36:56.311Z,98962.06
2023-03-08T03:39:24.775Z,98954.47
2023-03-08T03:41:53.889Z,98962.91
2023-03-08T03:44:21.948Z,98956.47
2023-03-08T03:46:50.362Z,98951.88
2023-03-08T03:49:25.104Z,98958.78
2023-03-08T03:51:53.242Z,98961.25
2023-03-08T03:54:34.134Z,98957.97
2023-03-08T03:57:02.160Z,98961.25
2023-03-08T03:59:35.032Z,98966.19
2023-03-08T04:02:04.041Z,98955.16
2023-03-08T04:04:42.218Z,98954.66
2023-03-08T04:07:12.775Z,98959.94
2023-03-08T04:09:45.551Z,98937.22
2023-03-08T04:12:17.374Z,98939.03
2023-03-08T04:14:46.060Z,98926.34
2023-03-08T04:17:15.296Z,98909.25
2023-03-08T04:19:50.890Z,98887.84
2023-03-08T04:22:20.950Z,98921.41
2023-03-08T04:24:53.774Z,98909.25
2023-03-08T04:27:27.959Z,98903.13
2023-03-08T04:29:56.207Z,98906.28
2023-03-08T04:32:24.971Z,98912.53
2023-03-08T04:34:59.143Z,98899.66
2023-03-08T04:37:31.123Z,98894.41
2023-03-08T04:40:09.506Z,98893.09
2023-03-08T04:42:49.678Z,98882.22
2023-03-08T04:45:21.995Z,98878.44
2023-03-08T04:47:50.961Z,98880.91
2023-03-08T04:50:20.529Z,98875.28
2023-03-08T04:52:48.908Z,98865.06
2023-03-08T04:55:20.655Z,98865.22
2023-03-08T04:57:48.680Z,98851.91
2023-03-08T05:00:18.062Z,98875.75
2023-03-08T05:02:46.220Z,98858.50
2023-03-08T05:05:18.339Z,98871.16
2023-03-08T05:07:50.932Z,98873.28
2023-03-08T05:10:19.496Z,98864.13
2023-03-08T05:12:47.452Z,98876.31
2023-03-08T05:15:15.756Z,98856.88
2023-03-08T05:17:43.705Z,98861.84
2023-03-08T05:20:12.638Z,98870.72
2023-03-08T05:22:57.686Z,98859.88
2023-03-08T05:25:33.669Z,98850.63
2023-03-08T05:28:03.170Z,98863.19
2023-03-08T05:30:31.856Z,98866.44
2023-03-08T05:33:00.096Z,98864.78
2023-03-08T05:35:30.752Z,98856.41
2023-03-08T05:37:59.138Z,98856.72
2023-03-08T05:40:27.953Z,98832.03
2023-03-08T05:42:58.667Z,98826.28
2023-03-08T05:45:30.671Z,98825.50
2023-03-08T05:48:00.782Z,98825.66
2023-03-08T05:50:33.230Z,98822.88
2023-03-08T05:53:02.563Z,98820.06
2023-03-08T05:55:31.358Z,98820.25
2023-03-08T05:58:01.920Z,98827.31
2023-03-08T06:00:31.537Z,98815.13
2023-03-08T06:03:03.934Z,98812.50
2023-03-08T06:05:35.117Z,98824.69
2023-03-08T06:08:03.646Z,98818.44
2023-03-08T06:10:31.640Z,98809.88
2023-03-08T06:13:01.185Z,98804.59
2023-03-08T06:15:29.413Z,98785.16
2023-03-08T06:17:59.574Z,98794.91
2023-03-08T06:20:30.365Z,98788.13
2023-03-08T06:22:58.406Z,98814.31
2023-03-08T06:25:26.418Z,98817.59
2023-03-08T06:27:55.308Z,98822.34
2023-03-08T06:30:40.880Z,98820.03
2023-03-08T06:33:08.986Z,98824.63
2023-03-08T06:35:37.172Z,98816.06
2023-03-08T06:38:06.677Z,98834.81
2023-03-08T06:40:35.376Z,98823.63
2023-03-08T06:43:03.502Z,98817.53
2023-03-08T06:45:34.863Z,98828.72
2023-03-08T06:48:04.449Z,98831.16
2023-03-08T06:50:32.570Z,98820.28
2023-03-08T06:53:00.694Z,98827.72
2023-03-08T06:55:46.078Z,98828.53
2023-03-08T06:58:14.166Z,98833.81
2023-03-08T07:00:42.192Z,98825.91
2023-03-08T07:03:12.118Z,98832.00
2023-03-08T07:05:40.544Z,98841.19
2023-03-08T07:08:08.536Z,98831.34
2023-03-08T07:10:36.525Z,98826.25
2023-03-08T07:13:04.576Z,98832.50
2023-03-08T07:15:32.924Z,98844.97
2023-03-08T07:18:00.849Z,98832.50
2023-03-08T07:20:32.475Z,98809.94
2023-03-08T07:23:01.979Z,98831.03
2023-03-08T07:25:29.924Z,98824.94
2023-03-08T07:27:59.827Z,98816.72
2023-03-08T07:30:27.889Z,98823.28
2023-03-08T07:32:56.151Z,98819.69
2023-03-08T07:35:24.525Z,98819.69
2023-03-08T07:37:53.876Z,98807.84
2023-03-08T07:40:22.090Z,98807.50
2023-03-08T07:42:50.379Z,98812.13
2023-03-08T07:45:34.762Z,98772.00
2023-03-08T07:48:02.792Z,98787.47
2023-03-08T07:50:30.749Z,98790.59
2023-03-08T07:53:01.616Z,98772.03
2023-03-08T07:55:29.806Z,98777.59
2023-03-08T07:57:57.876Z,98770.38
2023-03-08T08:00:26.622Z,98763.47
2023-03-08T08:02:55.168Z,98758.53
2023-03-08T08:05:23.399Z,98739.97
2023-03-08T08:07:51.432Z,98760.66
2023-03-08T08:10:20.933Z,98755.91
2023-03-08T08:12:49.039Z,98744.06
2023-03-08T08:15:17.860Z,98743.25
2023-03-08T08:17:45.802Z,98740.09
2023-03-08T08:20:14.718Z,98748.53
2023-03-08T08:22:42.944Z,98730.28
2023-03-08T08:25:11.616Z,98745.41
2023-03-08T08:27:41.034Z,98734.41
2023-03-08T08:30:11.286Z,98740.50
2023-03-08T08:32:39.454Z,98745.09
2023-03-08T08:35:08.125Z,98745.41
2023-03-08T08:37:36.517Z,98724.69
2023-03-08T08:40:08.045Z,98731.41
2023-03-08T08:42:36.211Z,98737.19
2023-03-08T08:45:07.175Z,98736.53
2023-03-08T08:47:35.537Z,98748.69
2023-03-08T08:50:06.074Z,98740.44
2023-03-08T08:52:37.220Z,98693.94
2023-03-08T08:55:06.129Z,98711.84
2023-03-08T08:57:35.526Z,98744.72
2023-03-08T09:00:13.529Z,98714.63
2023-03-08T09:02:41.800Z,98729.59
2023-03-08T09:05:10.772Z,98734.03
2023-03-08T09:07:39.338Z,98738.31
2023-03-08T09:10:10.432Z,98727.28
2023-03-08T09:12:40.367Z,98710.19
2023-03-08T09:15:11.588Z,98728.94
2023-03-08T09:17:40.052Z,98712.66
2023-03-08T09:20:10.251Z,98722.38
2023-03-08T09:22:38.453Z,98723.34
2023-03-08T09:25:06.634Z,98702.63
2023-03-08T09:27:34.651Z,98713.97
2023-03-08T09:30:02.741Z,98722.69
2023-03-08T09:32:34.075Z,98709.53
2023-03-08T09:35:02.296Z,98710.66
2023-03-08T09:37:30.373Z,98690.97
2023-03-08T09:39:58.790Z,98702.97
2023-03-08T09:42:28.098Z,98709.53
2023-03-08T09:45:07.385Z,98719.38
2023-03-08T09:47:44.516Z,98695.41
2023-03-08T09:50:20.866Z,98690.28
2023-03-08T09:52:52.245Z,98707.22
2023-03-08T09:55:26.328Z,98705.91
2023-03-08T09:57:56.406Z,98703.09
2023-03-08T10:00:27.358Z,98690.25
2023-03-08T10:03:14.950Z,98692.38
2023-03-08T10:05:44.126Z,98679.56
2023-03-08T10:08:16.859Z,98700.09
2023-03-08T10:11:01.867Z,98694.38
2023-03-08T10:13:34.236Z,98699.97
2023-03-08T10:16:08.212Z,98670.41
2023-03-08T10:18:41.188Z,98684.53
2023-03-08T10:21:17.351Z,98659.53
2023-03-08T10:23:49.541Z,98680.88
2023-03-08T10:26:22.158Z,98687.63
2023-03-08T10:28:51.594Z,98685.81
2023-03-08T10:31:22.777Z,98679.56
2023-03-08T10:33:59.308Z,98667.41
2023-03-08T10:36:27.777Z,98660.84
2023-03-08T10:39:10.040Z,98694.00
2023-03-08T10:42:10.316Z,98688.59
2023-03-08T10:44:52.037Z,98694.38
2023-03-08T10:48:01.312Z,98690.41
2023-03-08T10:50:32.396Z,98712.47
2023-03-08T10:53:10.274Z,98698.16
2023-03-08T10:55:45.413Z,98705.53
2023-03-08T10:58:31.954Z,98705.38
2023-03-08T11:01:02.537Z,98688.91
2023-03-08T11:03:31.509Z,98684.31
2023-03-08T11:06:03.464Z,98699.41
2023-03-08T11:08:45.325Z,98694.66
2023-03-08T11:11:16.241Z,98664.44
2023-03-08T11:13:48.082Z,98674.28
2023-03-08T11:16:55.851Z,98696.28
2023-03-08T11:19:31.732Z,98700.59
2023-03-08T11:22:06.234Z,98691.91
2023-03-08T11:24:53.331Z,98694.50
2023-03-08T11:27:30.300Z,98709.94
2023-03-08T11:30:13.365Z,98714.38
2023-03-08T11:32:48.195Z,98683.16
2023-03-08T11:35:23.764Z,98677.38
2023-03-08T11:37:56.549Z,98701.19
2023-03-08T11:40:26.192Z,98692.63
2023-03-08T11:43:02.207Z,98686.59
2023-03-08T11:45:32.050Z,98718.09
2023-03-08T11:48:35.720Z,98712.50
2023-03-08T11:51:09.910Z,98706.75
2023-03-08T11:53:55.671Z,98708.91
2023-03-08T11:56:34.677Z,98688.31
2023-03-08T11:59:08.332Z,98671.75
2023-03-08T12:01:47.539Z,98686.63
2023-03-08T12:04:19.010Z,98699.78
2023-03-08T12:06:47.456Z,98688.28
2023-03-08T12:09:22.810Z,98661.50
2023-03-08T12:12:23.191Z,98670.84
2023-03-08T12:15:08.681Z,98672.81
2023-03-08T12:17:48.141Z,98688.22
2023-03-08T12:20:34.363Z,98679.31
2023-03-08T12:23:29.712Z,98677.34
2023-03-08T12:26:25.600Z,98683.56
2023-03-08T12:29:00.127Z,98678.28
2023-03-08T12:31:29.815Z,98674.00
2023-03-08T12:34:36.052Z,98670.06
2023-03-08T12:37:47.829Z,98671.38
2023-03-08T12:40:31.867Z,98650.03
2023-03-08T12:43:45.869Z,98680.41
2023-03-08T12:47:11.710Z,98682.69
2023-03-08T12:49:46.554Z,98684.16
2023-03-08T12:52:42.112Z,98687.06
2023-03-08T12:55:42.079Z,98691.00
2023-03-08T12:58:32.304Z,98679.56
2023-03-08T13:01:06.891Z,98664.78
2023-03-08T13:03:39.036Z,98676.94
2023-03-08T13:06:26.526Z,98675.41
2023-03-08T13:08:59.366Z,98681.66
2023-03-08T13:26:17.811Z,98651.31
2023-03-08T13:28:48.357Z,98645.34
2023-03-08T13:31:19.467Z,98640.97
2023-03-08T13:33:49.101Z,98615.66
2023-03-08T13:36:20.455Z,98640.22
2023-03-08T13:38:57.204Z,98638.91
2023-03-08T13:41:39.351Z,98629.06
2023-03-08T13:44:08.690Z,98642.38
2023-03-08T13:46:40.056Z,98632.84
2023-03-08T13:49:15.895Z,98641.50
2023-03-08T13:51:44.680Z,98629.78
2023-03-08T13:54:17.188Z,98648.41
2023-03-08T13:56:46.679Z,98637.69
2023-03-08T13:59:18.935Z,98631.59
2023-03-08T14:01:50.506Z,98627.78
2023-03-08T14:04:20.398Z,98620.16
2023-03-08T14:06:53.288Z,98630.34
2023-03-08T14:09:21.480Z,98632.56
2023-03-08T14:11:58.144Z,98621.69
2023-03-08T14:14:29.383Z,98617.66
2023-03-08T14:16:58.198Z,98628.06
2023-03-08T14:19:28.088Z,98615.50
2023-03-08T14:21:57.713Z,98611.50
2023-03-08T14:24:26.690Z,98618.94
2023-03-08T14:26:57.688Z,98619.78
2023-03-08T14:29:26.368Z,98604.94
2023-03-08T14:31:59.933Z,98624.22
2023-03-08T14:34:29.284Z,98634.09
2023-03-08T14:36:58.796Z,98626.25
2023-03-08T14:39:28.539Z,98635.34
2023-03-08T14:41:58.047Z,98622.88
2023-03-08T14:44:29.744Z,98635.81
2023-03-08T14:47:00.337Z,98629.97
2023-03-08T14:49:29.841Z,98637.72
2023-03-08T14:51:57.949Z,98640.63
2023-03-08T14:54:32.865Z,98633.34
2023-03-08T14:57:09.536Z,98645.44
2023-03-08T14:59:41.152Z,98642.19
2023-03-08T15:02:12.625Z,98655.00
2023-03-08T15:04:40.811Z,98644.19
2023-03-08T15:07:09.103Z,98617.88
2023-03-08T15:09:37.300Z,98635.09
2023-03-08T15:12:09.399Z,98628.25
2023-03-08T15:14:37.660Z,98625.44
2023-03-08T15:17:07.287Z,98625.84
2023-03-08T15:19:35.606Z,98606.13
2023-03-08T15:22:04.873Z,98611.22
2023-03-08T15:24:49.542Z,98626.03
2023-03-08T15:27:22.855Z,98631.69
2023-03-08T15:29:51.296Z,98628.75
2023-03-08T15:32:19.196Z,98635.69
2023-03-08T15:34:47.510Z,98636.25
2023-03-08T15:37:15.603Z,98636.44
2023-03-08T15:39:49.439Z,98644.09
2023-03-08T15:42:26.111Z,98645.44
2023-03-08T15:44:54.024Z,98646.66
2023-03-08T15:47:22.055Z,98654.91
2023-03-08T15:49:51.368Z,98647.56
2023-03-08T15:52:19.354Z,98644.28
2023-03-08T15:54:50.197Z,98642.81
2023-03-08T15:57:19.521Z,98643.00
2023-03-08T15:59:47.683Z,98640.16
2023-03-08T16:02:16.247Z,98636.09
2023-03-08T16:04:47.694Z,98636.91
2023-03-08T16:07:16.927Z,98640.06
2023-03-08T16:09:44.864Z,98635.16
2023-03-08T16:12:12.787Z,98629.88
2023-03-08T16:14:42.713Z,98626.59
2023-03-08T16:17:16.589Z,98623.31
2023-03-08T16:19:44.984Z,98621.22
2023-03-08T16:22:12.835Z,98620.88
2023-03-08T16:24:47.877Z,98637.16
2023-03-08T16:27:16.033Z,98630.25
2023-03-08T16:29:45.326Z,98632.25
2023-03-08T16:32:14.896Z,98627.59
2023-03-08T16:34:42.852Z,98641.63
2023-03-08T16:37:10.768Z,98634.69
2023-03-08T16:39:38.750Z,98630.63
2023-03-08T16:42:06.891Z,98622.88
2023-03-08T16:44:34.932Z,98640.38
2023-03-08T16:47:04.277Z,98633.44
2023-03-08T16:49:32.292Z,98648.19
2023-03-08T16:52:00.209Z,98642.91
2023-03-08T16:54:28.125Z,98640.88
2023-03-08T16:56:56.045Z,98642.34
2023-03-08T16:59:24.563Z,98652.09
2023-03-08T17:01:52.443Z,98651.25
2023-03-08T17:04:23.130Z,98657.38
2023-03-08T17:06:51.111Z,98667.94
2023-03-08T17:09:18.966Z,98661.38
2023-03-08T17:11:47.037Z,98664.53
2023-03-08T17:14:15.140Z,98664.09
2023-03-08T17:16:43.503Z,98655.53
2023-03-08T17:19:11.972Z,98670.38
2023-03-08T17:21:41.274Z,98666.44
2023-03-08T17:24:10.473Z,98658.50
2023-03-08T17:26:41.531Z,98665.00
2023-03-08T17:29:09.475Z,98666.81
2023-03-08T17:31:39.028Z,98671.25
2023-03-08T17:34:08.729Z,98666.97
2023-03-08T17:36:36.748Z,98664.34
2023-03-08T17:39:06.280Z,98653.78
2023-03-08T17:41:34.386Z,98664.34
2023-03-08T17:44:02.417Z,98664.88
2023-03-08T17:46:30.456Z,98661.78
2023-03-08T17:48:58.516Z,98654.19
2023-03-08T17:51:27.720Z,98657.00
2023-03-08T17:53:56.985Z,98658.00
2023-03-08T17:56:29.237Z,98655.91
2023-03-08T17:58:57.738Z,98657.91
2023-03-08T18:01:26.494Z,98654.25
2023-03-08T18:03:55.623Z,98646.69
2023-03-08T18:06:26.039Z,98656.97
2023-03-08T18:08:54.094Z,98658.78
2023-03-08T18:11:22.093Z,98662.59
2023-03-08T18:13:51.429Z,98665.22
2023-03-08T18:16:19.499Z,98654.06
2023-03-08T18:18:49.542Z,98666.59
2023-03-08T18:21:17.923Z,98673.03
2023-03-08T18:23:46.576Z,98669.75
2023-03-08T18:26:15.975Z,98667.13
2023-03-08T18:28:43.982Z,98665.28
2023-03-08T18:31:15.944Z,98660.81
2023-03-08T18:33:43.984Z,98659.22
2023-03-08T18:36:11.867Z,98657.19
2023-03-08T18:38:39.834Z,98656.38
2023-03-08T18:41:14.886Z,98658.03
2023-03-08T18:43:42.969Z,98665.94
2023-03-08T18:46:12.391Z,98666.09
2023-03-08T18:48:42.619Z,98665.13
2023-03-08T18:51:10.614Z,98659.50
2023-03-08T18:53:38.519Z,98664.13
2023-03-08T18:56:07.277Z,98663.13
2023-03-08T18:58:35.255Z,98679.59
2023-03-08T19:01:03.313Z,98674.50
2023-03-08T19:03:31.374Z,98684.88
2023-03-08T19:06:02.284Z,98697.06
2023-03-08T19:08:30.320Z,98695.44
2023-03-08T19:10:58.315Z,98700.38
2023-03-08T19:13:26.354Z,98698.25
2023-03-08T19:15:54.241Z,98710.88
2023-03-08T19:18:23.566Z,98705.63
2023-03-08T19:20:52.835Z,98713.34
2023-03-08T19:23:22.207Z,98722.25
2023-03-08T19:26:21.925Z,98719.78
2023-03-08T19:28:49.937Z,98730.34
2023-03-08T19:31:18.165Z,98718.63
2023-03-08T19:33:49.684Z,98714.34
2023-03-08T19:36:17.613Z,98732.16
2023-03-08T19:38:47.019Z,98732.00
2023-03-08T19:41:16.066Z,98718.81
2023-03-08T19:43:44.583Z,98724.06
2023-03-08T19:46:12.492Z,98723.75
2023-03-08T19:48:40.424Z,98723.38
2023-03-08T19:51:08.627Z,98732.94
2023-03-08T19:53:36.493Z,98727.31
2023-03-08T19:56:06.396Z,98746.44
2023-03-08T19:58:34.336Z,98735.88
2023-03-08T20:01:03.540Z,98738.53
2023-03-08T20:03:31.641Z,98729.13
2023-03-08T20:05:59.603Z,98736.94
2023-03-08T20:08:27.599Z,98744.19
2023-03-08T20:10:55.756Z,98742.19
2023-03-08T20:13:25.055Z,98724.38
2023-03-08T20:15:52.989Z,98729.28
2023-03-08T20:18:20.982Z,98728.97
2023-03-08T20:20:50.178Z,98735.50
2023-03-08T20:23:18.167Z,98744.09
2023-03-08T20:25:46.028Z,98747.16
2023-03-08T20:28:14.045Z,98730.22
2023-03-08T20:30:43.671Z,98742.41
2023-03-08T20:33:11.716Z,98742.41
2023-03-08T20:35:39.908Z,98742.59
2023-03-08T20:38:07.950Z,98738.13
2023-03-08T20:40:37.575Z,98747.38
2023-03-08T20:43:10.928Z,98757.94
2023-03-08T20:45:39.661Z,98747.38
2023-03-08T20:48:09.998Z,98764.81
2023-03-08T20:50:38.088Z,98758.41
2023-03-08T20:53:05.955Z,98769.44
2023-03-08T20:55:33.873Z,98777.53
2023-03-08T20:58:01.784Z,98792.53
2023-03-08T21:00:29.731Z,98794.19
2023-03-08T21:02:57.931Z,98788.75
2023-03-08T21:05:27.215Z,98797.47
2023-03-08T21:07:55.361Z,98799.94
2023-03-08T21:10:23.286Z,98797.47
2023-03-08T21:12:51.405Z,98798.75
2023-03-08T21:15:19.506Z,98800.41
2023-03-08T21:17:47.464Z,98808.16
2023-03-08T21:20:15.425Z,98812.25
2023-03-08T21:22:44.683Z,98822.81
2023-03-08T21:25:12.805Z,98820.81
2023-03-08T21:27:40.784Z,98831.38
2023-03-08T21:30:10.497Z,98837.00
2023-03-08T21:32:38.425Z,98845.91
2023-03-08T21:35:07.011Z,98857.13
2023-03-08T21:37:35.623Z,98858.44
2023-03-08T21:40:07.309Z,98865.97
2023-03-08T21:42:35.296Z,98870.91
2023-03-08T21:45:03.214Z,98882.75
2023-03-08T21:47:31.202Z,98881.59
2023-03-08T21:49:59.221Z,98894.63
2023-03-08T21:52:27.202Z,98904.81
2023-03-08T21:54:55.091Z,98910.09
2023-03-08T21:57:24.415Z,98903.28
2023-03-08T21:59:52.306Z,98912.69
2023-03-08T22:02:20.477Z,98929.03
2023-03-08T22:04:48.388Z,98937.41
2023-03-08T22:07:16.312Z,98926.84
2023-03-08T22:09:44.180Z,98930.31
2023-03-08T22:12:12.140Z,98940.72
2023-03-08T22:14:41.444Z,98948.63
2023-03-08T22:17:09.395Z,98943.50
2023-03-08T22:19:37.236Z,98961.19
2023-03-08T22:22:05.221Z,98970.75
2023-03-08T22:24:33.171Z,98974.22
2023-03-08T22:27:01.469Z,98976.69
2023-03-08T22:29:30.755Z,98985.59
2023-03-08T22:32:00.054Z,98995.88
2023-03-08T22:34:27.934Z,99002.16
2023-03-08T22:36:55.895Z,98991.59
2023-03-08T22:39:23.835Z,98989.13
2023-03-08T22:41:51.725Z,99002.47
2023-03-08T22:44:19.688Z,99006.94
2023-03-08T22:46:47.950Z,99008.13
2023-03-08T22:49:17.302Z,99025.94
2023-03-08T22:51:45.219Z,99032.06
2023-03-08T22:54:15.399Z,99028.94
2023-03-08T22:56:43.323Z,99032.38
2023-03-08T22:59:11.230Z,99029.59
2023-03-08T23:01:39.511Z,99034.53
2023-03-08T23:04:09.306Z,99042.25
2023-03-08T23:06:39.115Z,99044.75
2023-03-08T23:09:08.463Z,99055.81
2023-03-08T23:11:37.041Z,99063.22
2023-03-08T23:14:05.057Z,99068.66
2023-03-08T23:16:33.162Z,99064.56
2023-03-08T23:19:01.088Z,99073.81
2023-03-08T23:21:30.400Z,99086.38
2023-03-08T23:23:59.665Z,99085.56
2023-03-08T23:26:28.589Z,99088.00
2023-03-08T23:28:56.823Z,99092.81
2023-03-08T23:31:25.740Z,99097.59
2023-03-08T23:33:53.713Z,99116.28
2023-03-08T23:36:23.918Z,99113.13
2023-03-08T23:38:52.084Z,99098.94
2023-03-08T23:41:21.367Z,99104.06
2023-03-08T23:43:49.332Z,99117.09
2023-03-08T23:46:18.951Z,99124.00
2023-03-08T23:48:47.363Z,99113.78
2023-03-08T23:51:16.661Z,99131.91
2023-03-08T23:53:44.597Z,99147.13
2023-03-08T23:56:17.797Z,99159.00
2023-03-08T23:58:48.820Z,99154.06
